createdAt,value
2022-11-17T00:02:09.947Z,78.56
2022-11-17T00:04:37.561Z,79.55
2022-11-17T00:07:05.256Z,79.86
2022-11-17T00:09:33.059Z,79.93
2022-11-17T00:12:22.746Z,80.03
2022-11-17T00:14:52.042Z,80.19
2022-11-17T00:17:19.695Z,80.60
2022-11-17T00:20:04.886Z,80.66
2022-11-17T00:22:33.072Z,79.96
2022-11-17T00:25:00.729Z,79.91
2022-11-17T00:27:29.918Z,80.07
2022-11-17T00:29:57.791Z,80.32
2022-11-17T00:32:42.947Z,80.31
2022-11-17T00:35:10.623Z,80.41
2022-11-17T00:37:59.941Z,80.88
2022-11-17T00:40:27.777Z,81.12
2022-11-17T00:42:56.829Z,81.36
2022-11-17T00:45:24.522Z,81.12
2022-11-17T00:47:52.184Z,81.00
2022-11-17T00:50:19.806Z,81.36
2022-11-17T00:52:47.544Z,81.51
2022-11-17T00:55:15.668Z,81.33
2022-11-17T00:57:43.371Z,80.68
2022-11-17T01:00:13.434Z,80.60
2022-11-17T01:02:41.178Z,80.54
2022-11-17T01:05:09.312Z,80.78
2022-11-17T01:07:37.047Z,81.03
2022-11-17T01:10:05.147Z,81.53
2022-11-17T01:12:32.728Z,81.73
2022-11-17T01:15:00.472Z,81.64
2022-11-17T01:17:29.592Z,82.05
2022-11-17T01:19:57.272Z,82.51
2022-11-17T01:22:24.909Z,82.48
2022-11-17T01:24:52.582Z,83.29
2022-11-17T01:27:20.241Z,83.35
2022-11-17T01:29:47.983Z,83.59
2022-11-17T01:32:15.694Z,82.60
2022-11-17T01:34:44.772Z,82.23
2022-11-17T01:37:21.559Z,80.97
2022-11-17T01:39:51.714Z,81.34
2022-11-17T01:42:21.792Z,80.84
2022-11-17T01:45:01.592Z,79.71
2022-11-17T01:47:36.219Z,78.58
2022-11-17T01:50:10.650Z,78.95
2022-11-17T01:52:40.890Z,77.77
2022-11-17T01:55:10.978Z,76.95
2022-11-17T01:57:41.738Z,76.11
2022-11-17T02:00:11.993Z,76.08
2022-11-17T02:02:42.141Z,75.67
2022-11-17T02:05:32.061Z,75.97
2022-11-17T02:08:04.345Z,76.03
2022-11-17T02:10:32.986Z,75.55
2022-11-17T02:13:02.140Z,75.54
2022-11-17T02:15:31.131Z,75.37
2022-11-17T02:18:00.369Z,75.55
2022-11-17T02:20:44.480Z,74.96
2022-11-17T02:23:45.742Z,74.84
2022-11-17T02:26:32.327Z,74.57
2022-11-17T02:29:12.923Z,74.21
2022-11-17T02:31:47.029Z,74.13
2022-11-17T02:34:26.086Z,74.34
2022-11-17T02:36:59.258Z,74.44
2022-11-17T02:39:34.249Z,73.77
2022-11-17T02:42:09.529Z,74.17
2022-11-17T02:44:43.366Z,74.46
2022-11-17T02:47:16.792Z,73.72
2022-11-17T02:49:48.776Z,73.46
2022-11-17T02:52:18.966Z,73.59
2022-11-17T02:54:46.786Z,73.51
2022-11-17T02:57:30.878Z,73.65
2022-11-17T03:00:02.680Z,72.45
2022-11-17T03:02:56.738Z,73.09
2022-11-17T03:05:30.873Z,72.76
2022-11-17T03:08:10.342Z,72.61
2022-11-17T03:10:49.875Z,72.96
2022-11-17T03:13:21.936Z,74.02
2022-11-17T03:15:56.117Z,73.68
2022-11-17T03:18:30.694Z,74.12
2022-11-17T03:21:11.110Z,73.97
2022-11-17T03:23:45.477Z,75.47
2022-11-17T03:26:17.860Z,76.25
2022-11-17T03:28:47.857Z,77.25
2022-11-17T03:31:19.023Z,77.88
2022-11-17T03:33:50.816Z,78.32
2022-11-17T03:36:23.597Z,78.37
2022-11-17T03:38:59.279Z,79.10
2022-11-17T03:41:29.706Z,78.82
2022-11-17T03:43:58.672Z,79.07
2022-11-17T03:46:29.731Z,79.51
2022-11-17T03:49:04.741Z,80.05
2022-11-17T03:51:33.810Z,80.11
2022-11-17T03:54:02.085Z,79.94
2022-11-17T03:56:38.497Z,79.34
2022-11-17T03:59:14.843Z,79.18
2022-11-17T04:01:43.972Z,79.04
2022-11-17T04:04:15.890Z,79.34
2022-11-17T04:06:43.806Z,78.83
2022-11-17T04:09:11.644Z,78.51
2022-11-17T04:11:57.056Z,78.14
2022-11-17T04:14:42.391Z,77.54
2022-11-17T04:17:11.676Z,77.35
2022-11-17T04:19:39.396Z,77.12
2022-11-17T04:22:07.077Z,77.02
2022-11-17T04:24:34.843Z,77.23
2022-11-17T04:27:20.244Z,77.44
2022-11-17T04:29:47.968Z,77.84
2022-11-17T04:32:16.992Z,77.89
2022-11-17T04:34:44.765Z,78.54
2022-11-17T04:37:17.492Z,80.06
2022-11-17T04:39:45.931Z,82.46
2022-11-17T04:42:12.667Z,84.37
2022-11-17T04:44:40.454Z,85.58
2022-11-17T04:47:08.085Z,85.96
2022-11-17T04:49:37.069Z,86.48
2022-11-17T04:52:05.081Z,86.27
2022-11-17T04:54:32.734Z,85.57
2022-11-17T04:57:00.433Z,85.88
2022-11-17T04:59:28.128Z,85.77
2022-11-17T05:01:57.843Z,85.57
2022-11-17T05:04:46.273Z,85.78
2022-11-17T05:07:15.347Z,86.27
2022-11-17T05:09:43.037Z,85.76
2022-11-17T05:12:28.498Z,85.27
2022-11-17T05:14:56.115Z,85.55
2022-11-17T05:17:22.775Z,85.55
2022-11-17T05:19:50.459Z,85.91
2022-11-17T05:22:40.544Z,86.14
2022-11-17T05:25:09.076Z,86.20
2022-11-17T05:27:37.272Z,85.26
2022-11-17T05:30:07.205Z,85.01
2022-11-17T05:32:35.093Z,84.59
2022-11-17T05:35:03.086Z,83.88
2022-11-17T05:37:32.090Z,83.72
2022-11-17T05:39:59.817Z,83.75
2022-11-17T05:42:27.539Z,83.86
2022-11-17T05:44:55.229Z,83.90
2022-11-17T05:47:23.048Z,83.57
2022-11-17T05:49:50.736Z,83.54
2022-11-17T05:52:18.402Z,83.34
2022-11-17T05:54:47.458Z,82.96
2022-11-17T05:57:20.950Z,82.73
2022-11-17T05:59:52.659Z,82.60
2022-11-17T06:02:25.124Z,82.43
2022-11-17T06:04:53.049Z,82.61
2022-11-17T06:07:21.151Z,82.88
2022-11-17T06:09:51.127Z,82.77
2022-11-17T06:12:19.007Z,82.97
2022-11-17T06:14:46.672Z,83.20
2022-11-17T06:17:22.751Z,84.02
2022-11-17T06:19:55.404Z,84.16
2022-11-17T06:22:23.375Z,84.75
2022-11-17T06:24:52.422Z,84.66
2022-11-17T06:27:20.126Z,84.37
2022-11-17T06:29:48.634Z,84.89
2022-11-17T06:32:18.647Z,85.62
2022-11-17T06:34:55.151Z,85.60
2022-11-17T06:37:23.836Z,85.76
2022-11-17T06:39:52.926Z,86.38
2022-11-17T06:42:40.601Z,86.27
2022-11-17T06:45:09.382Z,86.50
2022-11-17T06:47:37.052Z,86.25
2022-11-17T06:50:05.641Z,86.38
2022-11-17T06:52:33.346Z,86.60
2022-11-17T06:55:02.448Z,86.51
2022-11-17T06:57:30.979Z,86.24
2022-11-17T06:59:58.784Z,86.50
2022-11-17T07:02:26.466Z,86.48
2022-11-17T07:04:54.193Z,86.46
2022-11-17T07:07:22.007Z,86.34
2022-11-17T07:09:49.809Z,86.57
2022-11-17T07:12:18.908Z,86.93
2022-11-17T07:14:46.702Z,86.91
2022-11-17T07:17:14.449Z,86.99
2022-11-17T07:19:42.229Z,86.70
2022-11-17T07:22:10.017Z,87.15
2022-11-17T07:24:37.710Z,88.37
2022-11-17T07:27:06.588Z,88.79
2022-11-17T07:29:36.576Z,88.18
2022-11-17T07:32:05.511Z,88.30
2022-11-17T07:34:33.225Z,87.06
2022-11-17T07:37:00.955Z,86.49
2022-11-17T07:39:28.622Z,85.89
2022-11-17T07:41:56.323Z,86.27
2022-11-17T07:44:24.081Z,85.83
2022-11-17T07:46:53.114Z,86.08
2022-11-17T07:49:20.838Z,85.68
2022-11-17T07:51:48.600Z,85.81
2022-11-17T07:54:16.394Z,85.83
2022-11-17T07:56:44.123Z,86.51
2022-11-17T07:59:13.355Z,86.92
2022-11-17T08:01:43.756Z,88.28
2022-11-17T08:04:12.809Z,89.50
2022-11-17T08:06:40.558Z,89.80
2022-11-17T08:09:10.672Z,91.03
2022-11-17T08:11:38.357Z,91.59
2022-11-17T08:14:06.272Z,91.99
2022-11-17T08:16:34.089Z,91.45
2022-11-17T08:19:01.815Z,92.15
2022-11-17T08:21:30.919Z,92.38
2022-11-17T08:24:00.186Z,92.73
2022-11-17T08:26:28.211Z,93.24
2022-11-17T08:28:58.827Z,94.07
2022-11-17T08:31:26.805Z,94.33
2022-11-17T08:33:54.554Z,94.61
2022-11-17T08:36:22.303Z,94.00
2022-11-17T08:38:51.365Z,93.87
2022-11-17T08:41:19.849Z,94.13
2022-11-17T08:43:47.592Z,94.36
2022-11-17T08:46:15.492Z,94.66
2022-11-17T08:48:43.256Z,95.42
2022-11-17T08:51:13.175Z,94.73
2022-11-17T08:53:40.878Z,92.93
2022-11-17T08:56:12.444Z,92.29
2022-11-17T08:58:40.796Z,92.98
2022-11-17T09:01:09.715Z,92.76
2022-11-17T09:03:37.889Z,92.62
2022-11-17T09:06:06.481Z,92.78
2022-11-17T09:08:49.608Z,89.50
2022-11-17T09:11:18.764Z,88.42
2022-11-17T09:13:47.199Z,88.66
2022-11-17T09:16:16.377Z,88.98
2022-11-17T09:18:44.330Z,87.61
2022-11-17T09:21:15.128Z,86.29
2022-11-17T09:23:43.544Z,85.39
2022-11-17T09:26:13.658Z,85.67
2022-11-17T09:28:43.990Z,86.89
2022-11-17T09:31:13.536Z,87.70
2022-11-17T09:33:42.173Z,87.43
2022-11-17T09:36:10.874Z,87.38
2022-11-17T09:38:39.206Z,87.01
2022-11-17T09:41:27.162Z,87.31
2022-11-17T09:44:14.984Z,87.70
2022-11-17T09:46:58.245Z,87.27
2022-11-17T09:49:36.456Z,86.49
2022-11-17T09:52:11.890Z,87.03
2022-11-17T09:54:44.410Z,86.83
2022-11-17T09:57:22.483Z,86.08
2022-11-17T10:00:03.203Z,85.78
2022-11-17T10:02:31.061Z,84.50
2022-11-17T10:04:58.846Z,83.65
2022-11-17T10:07:27.667Z,82.91
2022-11-17T10:09:56.220Z,81.06
2022-11-17T10:12:28.291Z,77.89
2022-11-17T10:14:58.233Z,77.75
2022-11-17T10:17:26.013Z,77.42
2022-11-17T10:19:53.706Z,76.67
2022-11-17T10:22:34.425Z,76.94
2022-11-17T10:25:02.107Z,76.82
2022-11-17T10:27:31.985Z,77.20
2022-11-17T10:30:03.201Z,77.57
2022-11-17T10:32:33.771Z,76.55
2022-11-17T10:35:14.997Z,77.03
2022-11-17T10:37:52.145Z,77.39
2022-11-17T10:40:25.417Z,76.60
2022-11-17T10:43:04.498Z,76.37
2022-11-17T10:45:34.830Z,75.94
2022-11-17T10:48:11.368Z,75.28
2022-11-17T10:50:39.145Z,75.30
2022-11-17T10:53:24.938Z,76.34
2022-11-17T10:56:00.862Z,76.34
2022-11-17T10:58:30.562Z,77.03
2022-11-17T11:01:01.317Z,76.72
2022-11-17T11:03:31.110Z,75.97
2022-11-17T11:06:05.204Z,76.70
2022-11-17T11:08:45.625Z,76.50
2022-11-17T11:11:21.922Z,75.78
2022-11-17T11:13:57.274Z,76.22
2022-11-17T11:16:30.211Z,76.13
2022-11-17T11:18:59.092Z,74.66
2022-11-17T11:21:44.382Z,71.50
2022-11-17T11:24:23.897Z,65.55
2022-11-17T11:27:02.073Z,60.57
2022-11-17T11:29:43.510Z,60.49
2022-11-17T11:32:25.111Z,60.62
2022-11-17T11:35:07.331Z,62.98
2022-11-17T11:37:41.348Z,64.46
2022-11-17T11:40:16.342Z,66.78
2022-11-17T11:42:53.924Z,67.73
2022-11-17T11:45:42.642Z,69.10
2022-11-17T11:48:18.442Z,70.53
2022-11-17T11:50:53.699Z,71.94
2022-11-17T11:53:31.111Z,72.75
2022-11-17T11:56:10.250Z,73.39
2022-11-17T11:58:43.627Z,73.58
2022-11-17T12:01:13.123Z,74.41
2022-11-17T12:03:49.986Z,74.78
2022-11-17T12:06:43.168Z,75.40
2022-11-17T12:09:25.382Z,76.10
2022-11-17T12:12:03.553Z,76.54
2022-11-17T12:14:32.880Z,77.58
2022-11-17T12:17:07.477Z,78.91
2022-11-17T12:19:57.208Z,79.23
2022-11-17T12:22:59.580Z,80.16
2022-11-17T12:25:30.357Z,80.61
2022-11-17T12:27:58.071Z,80.30
2022-11-17T12:30:55.150Z,78.51
2022-11-17T12:33:23.809Z,79.55
2022-11-17T12:36:30.798Z,80.51
2022-11-17T12:39:01.033Z,80.75
2022-11-17T12:42:06.784Z,81.93
2022-11-17T12:44:44.562Z,83.12
2022-11-17T12:47:18.140Z,84.24
2022-11-17T12:49:57.302Z,84.42
2022-11-17T12:52:36.131Z,84.73
2022-11-17T12:55:14.393Z,84.25
2022-11-17T12:57:45.205Z,84.99
2022-11-17T13:00:19.177Z,85.49
2022-11-17T13:03:00.095Z,85.83
2022-11-17T13:05:30.445Z,86.12
2022-11-17T13:08:21.295Z,86.51
2022-11-17T13:10:49.130Z,86.86
2022-11-17T13:13:19.376Z,87.96
2022-11-17T13:15:50.982Z,88.03
2022-11-17T13:18:33.034Z,87.91
2022-11-17T13:21:01.736Z,87.90
2022-11-17T13:23:32.961Z,88.72
2022-11-17T13:26:11.663Z,89.19
2022-11-17T13:28:39.407Z,89.31
2022-11-17T13:31:07.679Z,88.37
2022-11-17T13:33:39.986Z,87.36
2022-11-17T13:36:19.795Z,87.52
2022-11-17T13:38:50.621Z,87.91
2022-11-17T13:41:20.093Z,87.41
2022-11-17T13:43:48.699Z,87.27
2022-11-17T13:46:19.926Z,86.06
2022-11-17T13:48:54.015Z,83.71
2022-11-17T13:51:33.285Z,83.79
2022-11-17T13:54:05.236Z,83.61
2022-11-17T13:56:36.280Z,81.92
2022-11-17T13:59:10.475Z,79.62
2022-11-17T14:01:38.224Z,77.67
2022-11-17T14:04:20.346Z,77.84
2022-11-17T14:06:57.033Z,78.46
2022-11-17T14:09:30.740Z,77.04
2022-11-17T14:12:01.831Z,77.92
2022-11-17T14:14:35.914Z,78.57
2022-11-17T14:17:13.416Z,78.32
2022-11-17T14:19:41.761Z,78.55
2022-11-17T14:22:30.954Z,78.69
2022-11-17T14:25:00.986Z,77.60
2022-11-17T14:27:41.654Z,78.06
2022-11-17T14:30:15.773Z,78.83
2022-11-17T14:32:44.223Z,79.78
2022-11-17T14:35:15.105Z,79.35
2022-11-17T14:37:43.226Z,79.82
2022-11-17T14:40:17.594Z,80.33
2022-11-17T14:42:45.603Z,80.96
2022-11-17T14:45:15.099Z,79.89
2022-11-17T14:47:43.553Z,79.41
2022-11-17T14:50:14.058Z,80.13
2022-11-17T14:52:42.503Z,80.97
2022-11-17T14:55:10.665Z,81.61
2022-11-17T14:57:40.493Z,81.81
2022-11-17T15:00:14.578Z,81.85
2022-11-17T15:02:45.135Z,81.65
2022-11-17T15:05:13.600Z,81.33
2022-11-17T15:07:42.510Z,81.82
2022-11-17T15:10:11.345Z,82.81
2022-11-17T15:12:40.487Z,82.85
2022-11-17T15:15:09.019Z,82.75
2022-11-17T15:17:39.768Z,83.15
2022-11-17T15:20:12.042Z,83.40
2022-11-17T15:22:39.985Z,82.69
2022-11-17T15:25:10.891Z,83.69
2022-11-17T15:27:39.944Z,85.26
2022-11-17T15:30:09.208Z,85.26
2022-11-17T15:32:39.853Z,85.31
2022-11-17T15:35:09.525Z,86.28
2022-11-17T15:37:37.404Z,86.62
2022-11-17T15:40:06.124Z,86.75
2022-11-17T15:42:33.933Z,86.98
2022-11-17T15:45:02.973Z,87.19
2022-11-17T15:47:30.673Z,86.93
2022-11-17T15:49:59.019Z,87.73
2022-11-17T15:52:48.840Z,88.03
2022-11-17T15:55:14.755Z,87.20
2022-11-17T15:57:42.449Z,86.83
2022-11-17T16:00:13.627Z,88.59
2022-11-17T16:02:42.012Z,88.31
2022-11-17T16:05:10.170Z,87.82
2022-11-17T16:07:38.050Z,87.35
2022-11-17T16:10:06.531Z,87.74
2022-11-17T16:12:34.326Z,87.47
2022-11-17T16:15:01.988Z,87.57
2022-11-17T16:17:31.216Z,87.28
2022-11-17T16:19:59.183Z,89.13
2022-11-17T16:22:27.127Z,88.94
2022-11-17T16:24:54.874Z,88.85
2022-11-17T16:27:22.625Z,89.75
2022-11-17T16:29:50.360Z,88.97
2022-11-17T16:32:18.253Z,88.95
2022-11-17T16:34:49.002Z,89.65
2022-11-17T16:37:17.263Z,89.10
2022-11-17T16:39:45.036Z,89.41
2022-11-17T16:42:12.776Z,89.79
2022-11-17T16:44:40.569Z,88.89
2022-11-17T16:47:08.338Z,88.73
2022-11-17T16:49:36.642Z,89.05
2022-11-17T16:52:05.727Z,89.20
2022-11-17T16:54:33.798Z,89.19
2022-11-17T16:57:01.534Z,89.63
2022-11-17T16:59:29.416Z,90.38
2022-11-17T17:01:57.244Z,91.84
2022-11-17T17:04:25.044Z,91.55
2022-11-17T17:06:52.872Z,92.59
2022-11-17T17:09:27.646Z,91.95
2022-11-17T17:11:55.762Z,92.39
2022-11-17T17:14:23.707Z,91.87
2022-11-17T17:16:51.564Z,92.94
2022-11-17T17:19:19.437Z,93.17
2022-11-17T17:21:47.310Z,93.09
2022-11-17T17:24:15.229Z,93.47
2022-11-17T17:26:44.588Z,93.83
2022-11-17T17:29:13.277Z,92.83
2022-11-17T17:31:42.709Z,91.73
2022-11-17T17:34:12.936Z,91.56
2022-11-17T17:36:40.819Z,92.00
2022-11-17T17:39:08.782Z,93.28
2022-11-17T17:41:40.773Z,93.49
2022-11-17T17:44:15.084Z,92.41
2022-11-17T17:46:43.656Z,93.16
2022-11-17T17:49:11.434Z,94.00
2022-11-17T17:51:42.201Z,93.91
2022-11-17T17:54:15.550Z,96.07
2022-11-17T17:56:43.484Z,96.21
2022-11-17T17:59:13.364Z,96.11
2022-11-17T18:01:42.255Z,96.66
2022-11-17T18:04:15.482Z,96.59
2022-11-17T18:06:46.227Z,95.93
2022-11-17T18:09:15.667Z,95.97
2022-11-17T18:11:47.999Z,97.30
2022-11-17T18:14:20.335Z,98.25
2022-11-17T18:16:48.153Z,97.25
2022-11-17T18:19:17.318Z,96.32
2022-11-17T18:21:45.701Z,97.14
2022-11-17T18:24:14.163Z,97.11
2022-11-17T18:26:42.308Z,96.44
2022-11-17T18:29:16.096Z,96.80
2022-11-17T18:31:47.387Z,97.02
2022-11-17T18:34:17.176Z,97.36
2022-11-17T18:36:44.838Z,98.25
2022-11-17T18:39:12.828Z,99.13
2022-11-17T18:41:40.679Z,97.65
2022-11-17T18:44:08.473Z,96.92
2022-11-17T18:46:36.164Z,97.37
2022-11-17T18:49:05.307Z,96.57
2022-11-17T18:51:34.165Z,97.00
2022-11-17T18:54:02.822Z,96.87
2022-11-17T18:56:34.186Z,96.51
2022-11-17T18:59:03.673Z,96.24
2022-11-17T19:01:31.892Z,95.64
2022-11-17T19:04:01.258Z,95.48
2022-11-17T19:06:31.382Z,95.76
2022-11-17T19:09:00.287Z,97.48
2022-11-17T19:11:30.756Z,97.61
2022-11-17T19:14:02.091Z,97.94
2022-11-17T19:16:30.320Z,98.27
2022-11-17T19:18:59.244Z,99.00
2022-11-17T19:21:28.494Z,98.66
2022-11-17T19:24:00.924Z,98.88
2022-11-17T19:26:30.150Z,99.16
2022-11-17T19:28:59.530Z,99.00
2022-11-17T19:31:28.206Z,98.73
2022-11-17T19:33:57.772Z,98.98
2022-11-17T19:36:27.313Z,99.14
2022-11-17T19:38:59.063Z,99.78
2022-11-17T19:41:28.963Z,100.00
2022-11-17T19:43:58.352Z,100.00
2022-11-17T19:46:27.693Z,100.00
2022-11-17T19:48:56.314Z,100.00
2022-11-17T19:51:26.130Z,100.00
2022-11-17T19:53:55.661Z,99.68
2022-11-17T19:56:26.697Z,99.89
2022-11-17T19:58:55.664Z,99.57
2022-11-17T20:01:25.015Z,99.62
2022-11-17T20:03:53.154Z,99.89
2022-11-17T20:06:23.006Z,99.38
2022-11-17T20:08:51.121Z,99.27
2022-11-17T20:11:20.744Z,98.90
2022-11-17T20:13:50.365Z,98.82
2022-11-17T20:16:19.686Z,99.04
2022-11-17T20:18:51.035Z,99.41
2022-11-17T20:21:19.196Z,100.00
2022-11-17T20:23:47.595Z,100.00
2022-11-17T20:26:17.654Z,99.95
2022-11-17T20:28:45.809Z,99.32
2022-11-17T20:31:16.700Z,98.98
2022-11-17T20:33:45.074Z,99.31
2022-11-17T20:36:15.268Z,99.83
2022-11-17T20:38:43.143Z,100.00
2022-11-17T20:41:11.435Z,100.00
2022-11-17T20:43:39.124Z,100.00
2022-11-17T20:46:07.281Z,100.00
2022-11-17T20:48:36.970Z,100.00
2022-11-17T20:51:07.129Z,100.00
2022-11-17T20:53:35.323Z,100.00
2022-11-17T20:56:05.144Z,100.00
2022-11-17T20:58:33.185Z,100.00
2022-11-17T21:01:07.550Z,100.00
2022-11-17T21:03:37.286Z,100.00
2022-11-17T21:06:06.702Z,100.00
2022-11-17T21:08:36.411Z,100.00
2022-11-17T21:11:09.610Z,100.00
2022-11-17T21:13:38.849Z,100.00
2022-11-17T21:16:08.938Z,100.00
2022-11-17T21:18:39.952Z,100.00
2022-11-17T21:21:09.632Z,100.00
2022-11-17T21:23:37.998Z,100.00
2022-11-17T21:26:06.892Z,100.00
2022-11-17T21:28:34.727Z,100.00
2022-11-17T21:31:08.168Z,100.00
2022-11-17T21:33:36.187Z,100.00
2022-11-17T21:36:07.114Z,100.00
2022-11-17T21:38:34.925Z,100.00
2022-11-17T21:41:03.859Z,100.00
2022-11-17T21:43:31.966Z,99.51
2022-11-17T21:46:03.389Z,100.00
2022-11-17T21:48:31.149Z,99.98
2022-11-17T21:50:58.879Z,100.00
2022-11-17T21:53:28.227Z,99.76
2022-11-17T21:56:01.820Z,99.26
2022-11-17T21:58:29.645Z,99.82
2022-11-17T22:00:57.521Z,100.00
2022-11-17T22:03:25.366Z,99.75
2022-11-17T22:05:56.775Z,99.05
2022-11-17T22:08:28.599Z,98.54
2022-11-17T22:10:56.361Z,99.01
2022-11-17T22:13:24.114Z,99.04
2022-11-17T22:15:51.779Z,97.87
2022-11-17T22:18:19.501Z,97.55
2022-11-17T22:20:51.668Z,97.21
2022-11-17T22:23:19.671Z,96.66
2022-11-17T22:25:55.608Z,96.38
2022-11-17T22:28:25.308Z,97.59
2022-11-17T22:30:53.925Z,98.03
2022-11-17T22:33:24.390Z,98.67
2022-11-17T22:35:52.158Z,99.41
2022-11-17T22:38:19.843Z,97.76
2022-11-17T22:40:50.472Z,97.57
2022-11-17T22:43:19.569Z,96.75
2022-11-17T22:45:47.215Z,97.09
2022-11-17T22:48:14.885Z,96.35
2022-11-17T22:50:42.695Z,94.75
2022-11-17T22:53:10.382Z,95.21
2022-11-17T22:55:38.126Z,95.68
2022-11-17T22:58:05.923Z,96.10
2022-11-17T23:00:34.998Z,96.39
2022-11-17T23:03:02.773Z,96.89
2022-11-17T23:05:30.594Z,96.37
2022-11-17T23:07:58.234Z,96.21
2022-11-17T23:10:25.989Z,96.82
2022-11-17T23:12:54.216Z,97.52
2022-11-17T23:15:22.352Z,98.23
2022-11-17T23:17:51.336Z,97.95
2022-11-17T23:20:19.094Z,97.31
2022-11-17T23:22:46.763Z,97.54
2022-11-17T23:25:14.406Z,97.16
2022-11-17T23:27:42.129Z,97.66
2022-11-17T23:30:10.839Z,97.89
2022-11-17T23:32:38.567Z,98.00
2022-11-17T23:35:08.652Z,97.48
2022-11-17T23:37:36.329Z,98.19
2022-11-17T23:40:04.082Z,98.29
2022-11-17T23:42:32.832Z,97.48
2022-11-17T23:45:01.435Z,97.57
2022-11-17T23:47:29.096Z,98.40
2022-11-17T23:49:56.824Z,98.24
2022-11-17T23:52:25.865Z,98.33
2022-11-17T23:54:53.592Z,98.93
2022-11-17T23:57:21.304Z,98.98
2022-11-17T23:59:48.966Z,98.54
